Time;durP1;ratioP1;P1;durP2;ratioP2;P2;SDS_P1;SDS_P2;PMS_P1;PMS_P2;Temp;Humidity;BMP_temperature;BMP_pressure;BME280_temperature;BME280_humidity;BME280_pressure;Samples;Min_cycle;Max_cycle;Signal;HPM_P1;HPM_P2
2022/04/20 00:00:58;;;;;;;1.75;0.60;;;21.10;61.30;;;;;;4173736;28;20056;-48
2022/04/20 00:03:01;;;;;;;0.40;0.40;;;21.10;60.70;;;;;;4176556;28;20053;-50
2022/04/20 00:05:03;;;;;;;0.32;0.32;;;21.10;60.80;;;;;;4176265;28;20056;-51
2022/04/20 00:07:05;;;;;;;0.43;0.43;;;21.10;60.10;;;;;;4177067;28;20580;-55
2022/04/20 00:09:08;;;;;;;0.50;0.30;;;21.00;59.90;;;;;;4182630;28;20139;-53
2022/04/20 00:11:10;;;;;;;0.40;0.40;;;21.00;59.30;;;;;;4181360;28;20229;-57
2022/04/20 00:13:12;;;;;;;0.50;0.38;;;21.00;59.80;;;;;;4180053;28;20623;-50
2022/04/20 00:15:14;;;;;;;1.48;0.93;;;20.90;60.00;;;;;;4177188;28;20147;-54
2022/04/20 00:17:16;;;;;;;0.73;0.70;;;21.00;60.40;;;;;;4173575;28;20068;-50
2022/04/20 00:19:19;;;;;;;1.65;0.60;;;21.00;60.70;;;;;;4175722;28;20853;-51
2022/04/20 00:21:21;;;;;;;2.20;0.60;;;21.10;61.20;;;;;;4177036;28;20044;-56
2022/04/20 00:23:23;;;;;;;0.70;0.50;;;21.10;60.90;;;;;;4179143;28;20157;-53
2022/04/20 00:25:25;;;;;;;0.47;0.47;;;21.20;60.70;;;;;;4180632;28;20095;-52
2022/04/20 00:27:27;;;;;;;0.55;0.50;;;21.20;60.70;;;;;;4179104;28;20083;-51
2022/04/20 00:29:29;;;;;;;0.57;0.40;;;21.30;60.80;;;;;;4176259;28;20056;-53
2022/04/20 00:31:32;;;;;;;0.95;0.60;;;21.30;60.50;;;;;;4177496;28;20051;-57
2022/04/20 00:33:34;;;;;;;1.67;0.25;;;21.30;60.10;;;;;;4173134;28;20173;-55
2022/04/20 00:35:36;;;;;;;0.68;0.30;;;21.40;60.00;;;;;;4171377;28;20052;-56
2022/04/20 00:37:43;;;;;;;0.52;0.30;;;21.40;60.20;;;;;;4168552;28;20052;-54
2022/04/20 00:39:45;;;;;;;0.40;0.40;;;21.40;59.60;;;;;;4165894;28;20079;-56
2022/04/20 00:41:48;;;;;;;0.50;0.30;;;21.50;59.80;;;;;;4169430;28;20079;-52
2022/04/20 00:43:51;;;;;;;0.50;0.40;;;21.50;60.10;;;;;;4172667;28;20040;-53
2022/04/20 00:45:54;;;;;;;1.43;0.50;;;21.50;60.60;;;;;;4179704;28;20048;-56
2022/04/20 00:47:58;;;;;;;0.60;0.45;;;21.60;59.80;;;;;;4171392;28;20058;-53
2022/04/20 00:50:01;;;;;;;1.05;0.57;;;21.60;59.40;;;;;;4175612;28;20239;-56
2022/04/20 00:52:06;;;;;;;0.37;0.30;;;21.60;58.90;;;;;;4175874;28;20048;-57
2022/04/20 00:54:08;;;;;;;0.52;0.52;;;21.60;59.70;;;;;;4179670;28;20677;-53
2022/04/20 00:56:10;;;;;;;0.30;0.30;;;21.60;58.90;;;;;;4176614;28;20106;-51
2022/04/20 00:58:13;;;;;;;0.60;0.50;;;21.60;58.80;;;;;;4170945;28;20202;-52
2022/04/20 01:00:15;;;;;;;1.50;0.60;;;21.60;59.00;;;;;;4176739;28;20174;-58
2022/04/20 01:02:19;;;;;;;2.88;0.50;;;21.70;59.50;;;;;;4173611;28;20080;-57
2022/04/20 01:04:22;;;;;;;0.57;0.30;;;21.70;59.10;;;;;;4174010;28;22572;-55
2022/04/20 01:06:24;;;;;;;0.77;0.50;;;21.70;58.70;;;;;;4177292;28;20064;-57
2022/04/20 01:08:28;;;;;;;0.55;0.55;;;21.70;58.90;;;;;;4176811;28;20066;-54
2022/04/20 01:10:32;;;;;;;2.75;0.63;;;21.80;59.00;;;;;;4174977;28;20067;-50
2022/04/20 01:12:34;;;;;;;0.32;0.32;;;21.80;59.40;;;;;;4176973;28;20045;-52
2022/04/20 01:14:37;;;;;;;0.30;0.30;;;21.80;59.60;;;;;;4177722;28;20945;-53
2022/04/20 01:16:39;;;;;;;0.20;0.20;;;21.80;59.00;;;;;;4176635;28;20048;-54
2022/04/20 01:18:44;;;;;;;0.30;0.30;;;21.90;58.80;;;;;;4173401;28;20547;-52
2022/04/20 01:20:47;;;;;;;0.63;0.50;;;21.90;59.10;;;;;;4177234;28;20064;-57
2022/04/20 01:22:49;;;;;;;0.30;0.30;;;21.90;59.00;;;;;;4176458;28;20130;-51
2022/04/20 01:24:51;;;;;;;0.70;0.38;;;21.90;58.30;;;;;;4164802;28;20176;-52
2022/04/20 01:26:53;;;;;;;0.73;0.40;;;22.00;57.90;;;;;;4173639;28;20127;-50
2022/04/20 01:28:57;;;;;;;0.30;0.30;;;22.00;57.80;;;;;;4178436;28;20056;-53
2022/04/20 01:30:59;;;;;;;0.77;0.60;;;22.10;58.00;;;;;;4177184;28;20048;-55
2022/04/20 01:33:01;;;;;;;0.30;0.30;;;22.10;57.80;;;;;;4177385;28;20083;-57
2022/04/20 01:35:04;;;;;;;0.40;0.40;;;22.10;58.20;;;;;;4176736;28;20048;-54
2022/04/20 01:37:06;;;;;;;1.42;0.40;;;22.20;57.70;;;;;;4177554;28;20131;-56
2022/04/20 01:39:08;;;;;;;0.30;0.30;;;22.20;57.70;;;;;;4174908;28;20767;-56
2022/04/20 01:41:10;;;;;;;0.28;0.28;;;22.20;57.90;;;;;;4177571;28;20052;-52
2022/04/20 01:43:13;;;;;;;1.08;0.50;;;22.20;57.50;;;;;;4175252;28;20067;-52
2022/04/20 01:45:15;;;;;;;0.52;0.50;;;22.30;57.80;;;;;;4173944;28;20534;-54
2022/04/20 01:47:17;;;;;;;1.48;0.50;;;22.30;57.80;;;;;;4177005;28;20621;-55
2022/04/20 01:49:19;;;;;;;1.30;0.30;;;22.30;57.40;;;;;;4174499;28;20246;-58
2022/04/20 01:53:42;;;;;;;2.25;0.50;;;22.30;57.50;;;;;;4173783;28;20090;-55
2022/04/20 01:55:44;;;;;;;5.47;0.52;;;22.40;57.70;;;;;;4177906;28;20052;-57
2022/04/20 01:57:46;;;;;;;0.73;0.32;;;22.40;58.00;;;;;;4175187;28;20045;-54
2022/04/20 01:59:48;;;;;;;0.35;0.35;;;22.40;57.00;;;;;;4178883;28;20052;-51
2022/04/20 02:04:10;;;;;;;0.40;0.40;;;22.30;57.40;;;;;;4178414;28;20052;-56
2022/04/20 02:06:14;;;;;;;0.30;0.30;;;22.40;57.70;;;;;;4178624;28;20061;-55
2022/04/20 02:08:20;;;;;;;9.55;0.75;;;22.40;57.70;;;;;;4179643;28;20059;-53
2022/04/20 02:10:22;;;;;;;5.70;0.60;;;22.40;58.40;;;;;;4178532;28;20057;-58
2022/04/20 02:12:24;;;;;;;3.97;0.70;;;22.40;58.50;;;;;;4177600;28;20909;-54
2022/04/20 02:14:27;;;;;;;0.65;0.50;;;22.50;58.30;;;;;;4182197;28;20052;-48
2022/04/20 02:16:29;;;;;;;1.45;0.50;;;22.50;58.30;;;;;;4177119;28;20060;-48
2022/04/20 02:18:31;;;;;;;0.30;0.30;;;22.50;57.10;;;;;;4179575;28;20058;-52
2022/04/20 02:20:33;;;;;;;0.88;0.40;;;22.50;56.70;;;;;;4182789;28;20722;-51
2022/04/20 02:22:35;;;;;;;0.95;0.55;;;22.50;57.00;;;;;;4179471;28;20094;-47
2022/04/20 02:24:37;;;;;;;2.60;0.30;;;22.60;56.70;;;;;;4184018;28;20059;-49
2022/04/20 02:26:40;;;;;;;0.47;0.30;;;22.60;57.20;;;;;;4184656;28;20056;-52
2022/04/20 02:28:42;;;;;;;1.17;0.30;;;22.60;57.60;;;;;;4181521;28;20044;-52
2022/04/20 02:30:45;;;;;;;0.30;0.30;;;22.70;57.00;;;;;;4182495;28;20044;-48
2022/04/20 02:32:47;;;;;;;0.22;0.22;;;22.70;56.40;;;;;;4178423;28;20058;-51
2022/04/20 02:34:49;;;;;;;0.65;0.40;;;22.70;56.60;;;;;;4181937;28;20052;-53
2022/04/20 02:36:52;;;;;;;0.60;0.38;;;22.70;56.70;;;;;;4180468;28;20049;-50
2022/04/20 02:38:55;;;;;;;0.40;0.40;;;22.80;57.10;;;;;;4181489;28;20356;-50
2022/04/20 02:40:57;;;;;;;0.60;0.50;;;22.80;56.40;;;;;;4182628;28;20052;-54
2022/04/20 02:42:59;;;;;;;0.30;0.30;;;22.90;56.40;;;;;;4185565;28;20048;-48
2022/04/20 02:45:01;;;;;;;1.45;0.47;;;22.90;56.20;;;;;;4173378;28;20045;-50
2022/04/20 02:47:04;;;;;;;0.40;0.40;;;22.90;56.80;;;;;;4174208;28;20053;-46
2022/04/20 02:49:06;;;;;;;0.87;0.40;;;23.00;56.80;;;;;;4174609;28;20114;-46
2022/04/20 02:51:08;;;;;;;0.43;0.30;;;23.00;56.80;;;;;;4175562;28;20052;-48
2022/04/20 02:53:12;;;;;;;0.32;0.32;;;23.00;56.20;;;;;;4155633;28;20052;-56
2022/04/20 02:55:21;;;;;;;0.38;0.38;;;23.10;56.00;;;;;;4139314;28;20105;-50
2022/04/20 02:57:23;;;;;;;0.52;0.40;;;23.10;56.60;;;;;;4125036;28;20274;-52
2022/04/20 02:59:25;;;;;;;0.30;0.30;;;23.10;56.40;;;;;;4128762;28;20059;-53
2022/04/20 03:01:28;;;;;;;0.32;0.30;;;23.20;56.90;;;;;;4125452;28;20170;-49
2022/04/20 03:03:30;;;;;;;0.30;0.30;;;23.20;56.00;;;;;;4120388;28;20170;-49
2022/04/20 03:05:33;;;;;;;0.30;0.30;;;23.10;54.50;;;;;;4136614;28;20044;-47
2022/04/20 03:07:35;;;;;;;0.73;0.43;;;23.10;54.30;;;;;;4125130;28;20052;-48
2022/04/20 03:09:38;;;;;;;0.28;0.28;;;23.00;53.90;;;;;;4122817;28;21047;-50
2022/04/20 03:11:40;;;;;;;0.57;0.57;;;23.00;54.60;;;;;;4121019;28;20058;-49
2022/04/20 03:13:42;;;;;;;0.40;0.40;;;23.00;54.70;;;;;;4128220;28;20083;-51
2022/04/20 03:15:46;;;;;;;0.50;0.40;;;23.00;54.90;;;;;;4127678;28;20060;-53
2022/04/20 03:17:48;;;;;;;0.30;0.30;;;23.00;55.30;;;;;;4122383;28;20064;-48
2022/04/20 03:19:54;;;;;;;1.23;0.65;;;23.00;55.90;;;;;;4095008;28;20588;-51
2022/04/20 03:21:56;;;;;;;0.40;0.40;;;23.00;56.00;;;;;;4100915;28;20122;-50
2022/04/20 03:23:58;;;;;;;0.40;0.40;;;23.00;56.00;;;;;;4104448;28;20091;-51
2022/04/20 03:26:01;;;;;;;1.02;0.50;;;23.10;56.90;;;;;;4126512;28;20306;-48
2022/04/20 03:28:03;;;;;;;0.50;0.50;;;23.20;56.70;;;;;;4121242;28;20060;-47
2022/04/20 03:30:06;;;;;;;1.63;0.40;;;23.20;56.70;;;;;;4099448;28;20049;-49
2022/04/20 03:32:15;;;;;;;0.43;0.30;;;23.30;56.90;;;;;;4118400;28;20057;-52
2022/04/20 03:34:17;;;;;;;0.55;0.43;;;23.30;56.80;;;;;;4101514;28;20045;-51
2022/04/20 03:36:19;;;;;;;1.02;0.55;;;23.40;56.60;;;;;;4126797;28;20056;-47
2022/04/20 03:38:22;;;;;;;0.32;0.30;;;23.50;56.90;;;;;;4113854;28;21007;-49
2022/04/20 03:40:24;;;;;;;0.22;0.22;;;23.60;57.20;;;;;;4116471;28;20947;-52
2022/04/20 03:42:26;;;;;;;1.08;0.43;;;23.70;57.20;;;;;;4121146;28;20080;-51
2022/04/20 03:44:29;;;;;;;0.50;0.30;;;23.80;57.30;;;;;;4108205;28;20151;-50
2022/04/20 03:46:31;;;;;;;0.52;0.30;;;23.80;57.30;;;;;;4115287;28;20091;-49
2022/04/20 03:48:33;;;;;;;0.30;0.30;;;23.90;57.20;;;;;;4096336;28;20136;-52
2022/04/20 03:50:36;;;;;;;0.40;0.20;;;24.00;57.20;;;;;;4124747;28;20065;-50
2022/04/20 03:52:39;;;;;;;0.30;0.30;;;24.10;57.20;;;;;;4097869;28;20651;-51
2022/04/20 03:54:41;;;;;;;1.35;0.32;;;24.10;57.30;;;;;;4116328;28;20076;-52
2022/04/20 03:59:03;;;;;;;1.00;0.30;;;24.20;57.60;;;;;;4113169;28;20126;-54
2022/04/20 04:01:05;;;;;;;1.73;0.40;;;24.20;57.60;;;;;;4123300;28;20052;-50
2022/04/20 04:03:08;;;;;;;5.73;0.50;;;24.20;57.80;;;;;;4121758;28;20052;-48
2022/04/20 04:05:10;;;;;;;3.33;0.40;;;24.30;57.80;;;;;;4116819;28;20147;-51
2022/04/20 04:07:12;;;;;;;1.80;0.30;;;24.30;57.80;;;;;;4115483;28;20095;-47
2022/04/20 04:09:15;;;;;;;1.45;0.40;;;24.30;57.90;;;;;;4124528;28;20298;-48
2022/04/20 04:11:17;;;;;;;0.47;0.30;;;24.40;57.90;;;;;;4115998;28;20126;-49
2022/04/20 04:13:19;;;;;;;0.40;0.30;;;24.50;57.90;;;;;;4114621;28;20215;-53
2022/04/20 04:15:21;;;;;;;1.75;0.57;;;24.60;57.80;;;;;;4123404;28;20309;-45
2022/04/20 04:17:24;;;;;;;0.53;0.30;;;24.60;57.60;;;;;;4125783;28;20048;-53
2022/04/20 04:19:26;;;;;;;0.20;0.20;;;24.70;57.50;;;;;;4122417;28;20060;-51
2022/04/20 04:21:28;;;;;;;0.80;0.40;;;24.80;57.50;;;;;;4128202;28;20044;-52
2022/04/20 04:23:33;;;;;;;0.20;0.20;;;24.90;57.40;;;;;;4134692;28;20086;-53
2022/04/20 04:25:35;;;;;;;0.52;0.40;;;24.90;58.20;;;;;;4129346;28;20209;-51
2022/04/20 04:27:37;;;;;;;1.98;0.32;;;24.90;57.50;;;;;;4128292;28;20065;-49
2022/04/20 04:29:39;;;;;;;0.43;0.30;;;25.00;57.50;;;;;;4126710;28;20065;-49
2022/04/20 04:31:42;;;;;;;0.30;0.30;;;25.10;57.30;;;;;;4136486;28;20076;-50
2022/04/20 04:33:44;;;;;;;1.30;0.30;;;25.20;57.20;;;;;;4126429;28;20053;-48
2022/04/20 04:35:46;;;;;;;0.30;0.30;;;25.20;57.20;;;;;;4128841;28;20130;-48
2022/04/20 04:37:49;;;;;;;0.30;0.30;;;25.30;57.30;;;;;;4135320;28;20084;-45
2022/04/20 04:39:51;;;;;;;;;;;25.30;57.20;;;;;;4132011;28;20187;-50
2022/04/20 04:41:53;;;;;;;0.47;0.35;;;25.40;57.20;;;;;;4128995;28;19929;-45
2022/04/20 04:43:55;;;;;;;3.70;0.40;;;25.50;57.10;;;;;;4130961;28;20605;-52
2022/04/20 04:50:38;;;;;;;1.10;0.50;;;25.70;57.10;;;;;;4127866;28;20133;-47
2022/04/20 04:52:40;;;;;;;2.55;0.50;;;25.80;57.10;;;;;;4132250;28;20076;-49
2022/04/20 04:54:42;;;;;;;0.45;0.45;;;25.80;56.80;;;;;;4130487;28;20068;-47
2022/04/20 04:56:44;;;;;;;0.50;0.30;;;25.90;56.70;;;;;;4126507;28;20358;-48
2022/04/20 04:58:46;;;;;;;0.38;0.30;;;26.00;56.60;;;;;;4127123;28;20060;-52
2022/04/20 05:00:49;;;;;;;1.08;0.38;;;26.10;56.60;;;;;;4138269;28;20056;-47
2022/04/20 05:02:51;;;;;;;0.73;0.32;;;26.20;56.50;;;;;;4124999;28;20183;-45
2022/04/20 05:04:53;;;;;;;0.30;0.30;;;26.20;57.10;;;;;;4126163;28;20055;-50
2022/04/20 05:06:56;;;;;;;0.50;0.30;;;26.30;56.30;;;;;;4137657;28;20044;-48
2022/04/20 05:08:58;;;;;;;0.17;0.17;;;26.30;56.30;;;;;;4135976;28;20057;-49
2022/04/20 05:11:00;;;;;;;8.57;0.63;;;26.40;56.90;;;;;;4129364;28;20722;-48
2022/04/20 05:13:03;;;;;;;0.32;0.32;;;26.50;56.20;;;;;;4132266;28;20189;-47
2022/04/20 05:15:05;;;;;;;;;;;26.50;56.00;;;;;;4140727;28;20044;-49
2022/04/20 05:17:07;;;;;;;0.95;0.30;;;26.50;56.20;;;;;;4143979;28;21389;-48
2022/04/20 05:19:10;;;;;;;0.28;0.28;;;26.50;56.30;;;;;;4124542;28;20056;-46
2022/04/20 05:21:12;;;;;;;3.10;0.57;;;26.40;55.90;;;;;;4126329;28;20099;-47
2022/04/20 05:23:14;;;;;;;0.47;0.25;;;26.40;56.60;;;;;;4129540;28;20905;-50
2022/04/20 05:25:17;;;;;;;0.35;0.30;;;26.30;56.60;;;;;;4120329;28;20630;-45
2022/04/20 05:27:20;;;;;;;0.88;0.50;;;26.30;56.70;;;;;;4107367;28;20647;-52
2022/04/20 05:29:22;;;;;;;0.28;0.28;;;26.30;56.80;;;;;;4129175;28;20067;-49
2022/04/20 05:31:24;;;;;;;2.22;0.25;;;26.30;57.00;;;;;;4125984;28;21603;-51
2022/04/20 05:33:26;;;;;;;0.90;0.20;;;26.20;57.00;;;;;;4107488;28;20111;-46
2022/04/20 05:35:28;;;;;;;1.17;0.20;;;26.20;57.10;;;;;;4126490;28;20057;-48
2022/04/20 05:42:11;;;;;;;3.83;0.50;;;26.20;57.10;;;;;;4126365;28;20049;-48
2022/04/20 05:44:14;;;;;;;0.20;0.20;;;26.20;57.10;;;;;;4123556;28;20063;-51
2022/04/20 05:46:16;;;;;;;1.02;0.22;;;26.20;57.20;;;;;;4130231;28;20060;-50
2022/04/20 05:48:19;;;;;;;2.47;0.35;;;26.20;57.30;;;;;;4088644;28;20050;-53
2022/04/20 05:50:22;;;;;;;1.10;0.20;;;26.20;57.40;;;;;;4104671;28;20057;-48
2022/04/20 05:52:23;;;;;;;;;;;26.20;57.50;;;;;;4132170;28;20045;-47
2022/04/20 05:54:26;;;;;;;4.70;0.55;;;26.20;57.50;;;;;;4107027;28;21579;-52
2022/04/20 05:56:28;;;;;;;4.80;0.85;;;26.20;57.50;;;;;;4122351;28;20564;-49
2022/04/20 05:58:30;;;;;;;3.78;0.35;;;26.30;57.90;;;;;;4125465;28;20428;-54
2022/04/20 06:00:32;;;;;;;1.27;0.33;;;26.20;57.70;;;;;;4132051;28;20053;-50
2022/04/20 06:02:34;;;;;;;0.55;0.40;;;26.20;57.70;;;;;;4119995;28;20057;-51
2022/04/20 06:04:36;;;;;;;1.98;0.50;;;26.30;57.80;;;;;;4123450;28;20484;-45
2022/04/20 06:06:38;;;;;;;0.45;0.30;;;26.30;57.90;;;;;;4129573;28;20133;-48
2022/04/20 06:08:42;;;;;;;0.37;0.37;;;26.30;57.80;;;;;;4128462;28;20412;-53
2022/04/20 06:10:48;;;;;;;0.30;0.30;;;26.30;57.70;;;;;;4127497;28;20053;-48
2022/04/20 06:12:51;;;;;;;0.77;0.35;;;26.20;57.60;;;;;;4126600;28;20057;-49
2022/04/20 06:14:53;;;;;;;0.32;0.32;;;26.30;57.70;;;;;;4134670;28;20065;-54
2022/04/20 06:16:55;;;;;;;1.30;0.20;;;26.20;57.70;;;;;;4131180;28;20057;-50
2022/04/20 06:18:57;;;;;;;1.70;0.35;;;26.20;57.80;;;;;;4134224;28;20188;-53
2022/04/20 06:20:59;;;;;;;0.35;0.30;;;26.20;57.80;;;;;;4144034;28;20185;-44
2022/04/20 06:23:01;;;;;;;2.05;0.40;;;26.30;57.90;;;;;;4146782;28;20060;-48
2022/04/20 06:25:04;;;;;;;1.00;0.47;;;26.30;57.90;;;;;;4141651;28;20053;-45
2022/04/20 06:27:07;;;;;;;4.47;0.50;;;26.20;57.90;;;;;;4141953;28;20380;-50
2022/04/20 06:29:10;;;;;;;5.50;0.82;;;26.30;57.90;;;;;;4127680;28;20063;-48
2022/04/20 06:31:12;;;;;;;0.57;0.43;;;26.30;58.10;;;;;;4129228;28;21536;-51
2022/04/20 06:33:14;;;;;;;1.15;0.63;;;26.30;58.10;;;;;;4141540;28;20308;-49
2022/04/20 06:35:16;;;;;;;3.17;0.70;;;26.30;58.20;;;;;;4145710;28;20063;-50
2022/04/20 06:37:19;;;;;;;2.47;0.43;;;26.30;58.30;;;;;;4149821;28;20062;-46
2022/04/20 06:39:21;;;;;;;4.07;0.70;;;26.30;58.10;;;;;;4140684;28;20195;-49
2022/04/20 06:41:24;;;;;;;5.53;0.57;;;26.30;58.20;;;;;;4121035;28;20061;-52
2022/04/20 06:43:26;;;;;;;11.63;1.13;;;26.30;58.20;;;;;;4127182;28;20092;-49
2022/04/20 06:45:28;;;;;;;1.13;0.47;;;26.30;58.30;;;;;;4153377;28;20247;-44
2022/04/20 06:47:33;;;;;;;8.57;0.73;;;26.30;58.10;;;;;;4150348;28;20056;-49
2022/04/20 06:49:35;;;;;;;1.67;0.60;;;26.30;58.10;;;;;;4130304;28;20151;-52
2022/04/20 06:58:42;;;;;;;1.35;0.52;;;26.30;58.30;;;;;;4139192;28;21853;-49
2022/04/20 07:00:44;;;;;;;1.55;0.77;;;26.30;58.30;;;;;;4155374;28;20044;-49
2022/04/20 07:02:46;;;;;;;3.22;0.88;;;26.30;58.30;;;;;;4152245;28;20063;-50
2022/04/20 07:04:49;;;;;;;2.30;0.90;;;26.30;59.00;;;;;;4161188;28;20045;-44
2022/04/20 07:06:51;;;;;;;3.00;0.75;;;26.40;58.50;;;;;;4143415;28;21538;-43
2022/04/20 07:08:54;;;;;;;4.33;1.60;;;26.40;58.40;;;;;;4143632;28;20433;-49
2022/04/20 07:11:19;;;;;;;3.67;1.55;;;26.30;57.50;;;;;;4148100;28;20139;-45
2022/04/20 07:13:21;;;;;;;12.40;2.55;;;26.30;57.30;;;;;;4101672;28;20111;-49
2022/04/20 07:15:25;;;;;;;6.97;1.83;;;26.30;57.20;;;;;;4132809;28;20052;-44
2022/04/20 07:17:27;;;;;;;5.00;1.60;;;26.20;57.40;;;;;;4140743;28;20391;-56
2022/04/20 07:19:29;;;;;;;5.00;1.45;;;26.20;57.60;;;;;;4121266;28;20052;-48
2022/04/20 07:21:32;;;;;;;6.93;1.58;;;26.20;57.70;;;;;;4095993;28;20053;-44
2022/04/20 07:23:35;;;;;;;3.65;1.40;;;26.20;57.80;;;;;;4114136;28;20096;-47
2022/04/20 07:25:39;;;;;;;4.70;1.43;;;26.20;58.00;;;;;;4124429;28;20779;-51
2022/04/20 07:27:41;;;;;;;3.50;1.30;;;26.20;58.00;;;;;;4119749;28;20056;-46
2022/04/20 07:29:43;;;;;;;3.03;0.90;;;26.20;58.20;;;;;;4113495;28;20056;-49
2022/04/20 07:31:46;;;;;;;4.95;1.38;;;26.10;58.10;;;;;;4118950;28;20155;-52
2022/04/20 07:33:48;;;;;;;5.80;2.13;;;26.10;58.30;;;;;;4130564;28;20079;-47
2022/04/20 07:35:51;;;;;;;4.00;1.90;;;26.10;58.40;;;;;;4103739;28;20049;-53
2022/04/20 07:37:53;;;;;;;4.20;2.00;;;26.10;58.50;;;;;;4101290;28;20148;-51
2022/04/20 07:39:56;;;;;;;7.23;2.27;;;26.10;59.20;;;;;;4110868;28;20935;-55
2022/04/20 07:41:59;;;;;;;4.30;1.52;;;26.10;58.70;;;;;;4123291;28;20609;-51
2022/04/20 07:44:01;;;;;;;2.75;1.50;;;26.10;58.80;;;;;;4101618;28;20215;-50
2022/04/20 07:46:03;;;;;;;6.65;1.60;;;26.10;58.80;;;;;;4116725;28;20167;-46
2022/04/20 07:48:07;;;;;;;4.67;1.13;;;26.10;58.70;;;;;;4126948;28;20055;-51
2022/04/20 07:50:19;;;;;;;3.92;1.35;;;26.10;58.50;;;;;;4103597;28;20128;-48
2022/04/20 07:52:23;;;;;;;2.05;1.10;;;26.10;58.50;;;;;;4124798;28;20442;-49
2022/04/20 07:54:25;;;;;;;3.97;1.90;;;26.10;58.30;;;;;;4119479;28;20045;-47
2022/04/20 07:56:27;;;;;;;1.17;1.08;;;26.00;58.10;;;;;;4118081;28;20508;-49
2022/04/20 07:58:29;;;;;;;3.00;1.30;;;26.10;58.10;;;;;;4113900;28;20232;-52
2022/04/20 08:00:31;;;;;;;3.55;1.40;;;26.00;57.90;;;;;;4103101;28;20054;-52
2022/04/20 08:02:34;;;;;;;2.20;1.30;;;26.00;57.90;;;;;;4122599;28;20099;-54
2022/04/20 08:04:36;;;;;;;1.45;1.20;;;26.00;57.80;;;;;;4111895;28;20073;-56
2022/04/20 08:06:38;;;;;;;2.25;1.10;;;26.00;57.70;;;;;;4113668;28;20116;-50
2022/04/20 08:08:41;;;;;;;2.23;1.13;;;25.90;57.60;;;;;;4120614;28;20079;-50
2022/04/20 08:10:43;;;;;;;4.57;1.48;;;25.90;57.50;;;;;;4103850;28;20426;-48
2022/04/20 08:12:46;;;;;;;4.10;1.15;;;25.90;57.40;;;;;;4097578;28;20049;-47
2022/04/20 08:14:48;;;;;;;3.85;1.20;;;25.90;57.50;;;;;;4123795;28;20052;-46
2022/04/20 08:16:52;;;;;;;7.00;1.35;;;25.90;57.70;;;;;;4118490;28;20056;-49
2022/04/20 08:18:54;;;;;;;3.85;1.05;;;25.90;57.80;;;;;;4133719;28;20067;-53
2022/04/20 08:20:56;;;;;;;4.63;1.67;;;25.80;58.00;;;;;;4157825;28;20174;-48
2022/04/20 08:22:58;;;;;;;4.03;1.10;;;25.80;58.10;;;;;;4127442;28;20242;-45
2022/04/20 08:25:05;;;;;;;2.58;0.90;;;25.80;58.30;;;;;;4141076;28;20050;-53
2022/04/20 08:27:07;;;;;;;3.97;1.00;;;25.80;58.40;;;;;;4130055;28;20048;-49
2022/04/20 08:29:10;;;;;;;2.87;1.10;;;25.80;58.50;;;;;;4139183;28;20139;-55
2022/04/20 08:31:15;;;;;;;7.15;1.20;;;25.80;58.50;;;;;;4130609;28;20309;-51
2022/04/20 08:33:17;;;;;;;1.42;0.90;;;25.80;58.70;;;;;;4129848;28;20078;-49
2022/04/20 08:35:19;;;;;;;1.67;0.70;;;25.80;58.70;;;;;;4141195;28;20052;-48
2022/04/20 08:37:22;;;;;;;1.63;0.75;;;25.80;58.70;;;;;;4140515;28;20113;-49
2022/04/20 08:39:24;;;;;;;2.10;0.90;;;25.90;58.70;;;;;;4137760;28;20080;-49
2022/04/20 08:41:26;;;;;;;1.40;0.82;;;25.80;58.70;;;;;;4136555;28;20068;-52
2022/04/20 08:43:29;;;;;;;2.13;0.82;;;25.80;58.70;;;;;;4143657;28;20711;-46
2022/04/20 08:45:37;;;;;;;1.05;0.95;;;25.80;58.60;;;;;;4130291;28;21109;-49
2022/04/20 08:47:40;;;;;;;1.58;0.60;;;25.80;58.60;;;;;;4135093;28;20060;-45
2022/04/20 08:49:44;;;;;;;1.92;1.13;;;25.80;58.60;;;;;;4118292;28;20095;-50
2022/04/20 08:54:08;;;;;;;3.40;0.95;;;25.80;58.70;;;;;;4132603;28;20168;-47
2022/04/20 08:58:30;;;;;;;0.73;0.73;;;25.80;58.60;;;;;;4131535;28;20762;-48
2022/04/20 09:00:33;;;;;;;3.70;1.07;;;25.80;58.60;;;;;;4143013;28;20381;-52
2022/04/20 09:02:35;;;;;;;1.88;0.70;;;25.80;58.50;;;;;;4137615;28;21408;-49
2022/04/20 09:04:37;;;;;;;1.65;0.60;;;25.80;58.60;;;;;;4135551;28;20123;-52
2022/04/20 09:06:45;;;;;;;0.73;0.70;;;25.80;58.50;;;;;;4150401;28;20056;-53
2022/04/20 09:08:48;;;;;;;0.70;0.70;;;25.80;58.50;;;;;;4140059;28;20135;-50
2022/04/20 09:10:51;;;;;;;1.95;1.05;;;25.80;58.60;;;;;;4141026;28;20064;-52
2022/04/20 09:13:30;;;;;;;0.65;0.60;;;25.80;58.50;;;;;;4130129;28;20045;-50
2022/04/20 09:15:34;;;;;;;0.68;0.68;;;25.80;58.40;;;;;;4130124;28;20321;-54
2022/04/20 09:17:47;;;;;;;3.72;1.02;;;25.80;58.90;;;;;;4137722;28;20057;-49
2022/04/20 09:19:55;;;;;;;1.55;0.55;;;25.80;58.30;;;;;;4139102;28;20086;-53
2022/04/20 09:21:57;;;;;;;1.67;0.70;;;25.90;58.30;;;;;;4143635;28;20045;-55
2022/04/20 09:24:09;;;;;;;0.98;0.70;;;25.80;58.30;;;;;;4149851;28;20846;-56
2022/04/20 09:26:17;;;;;;;1.60;1.10;;;25.80;58.20;;;;;;4137053;28;21807;-50
2022/04/20 09:28:21;;;;;;;1.42;0.98;;;25.80;57.90;;;;;;4132606;28;21890;-52
2022/04/20 09:30:23;;;;;;;4.18;0.80;;;25.80;57.80;;;;;;4133160;28;20048;-52
2022/04/20 09:32:37;;;;;;;0.63;0.60;;;25.80;55.70;;;;;;4134220;28;20053;-50
2022/04/20 09:34:54;;;;;;;2.30;0.80;;;25.70;53.60;;;;;;4130805;28;20131;-52
2022/04/20 09:36:57;;;;;;;1.50;0.90;;;25.70;52.40;;;;;;4128931;28;20875;-51
2022/04/20 09:39:04;;;;;;;1.38;0.77;;;25.70;51.70;;;;;;4138816;28;20049;-53
2022/04/20 09:41:10;;;;;;;1.00;0.57;;;25.60;52.30;;;;;;4142765;28;20060;-51
2022/04/20 09:43:16;;;;;;;1.00;0.60;;;25.50;51.70;;;;;;4138460;28;21858;-51
2022/04/20 09:45:20;;;;;;;1.05;0.85;;;25.50;51.60;;;;;;4130252;28;20056;-53
2022/04/20 09:50:02;;;;;;;1.35;0.73;;;25.40;51.30;;;;;;4150363;28;21137;-47
2022/04/20 09:52:13;;;;;;;1.58;0.73;;;25.30;51.50;;;;;;4141509;28;20824;-49
2022/04/20 09:54:36;;;;;;;0.60;0.60;;;25.30;51.60;;;;;;4140509;28;20668;-51
2022/04/20 09:56:38;;;;;;;2.35;0.70;;;25.20;51.40;;;;;;4131400;28;20834;-50
2022/04/20 09:58:41;;;;;;;0.55;0.52;;;25.10;51.10;;;;;;4140253;28;20075;-52
2022/04/20 10:00:50;;;;;;;1.42;0.70;;;25.10;51.10;;;;;;4135610;28;21390;-52
2022/04/20 10:02:55;;;;;;;1.55;0.77;;;25.10;51.10;;;;;;4126989;28;20057;-51
2022/04/20 10:04:58;;;;;;;0.73;0.60;;;25.10;51.10;;;;;;4130624;28;20049;-55
2022/04/20 10:07:00;;;;;;;;;;;25.00;51.10;;;;;;4112638;28;20048;-55
2022/04/20 10:09:03;;;;;;;1.17;0.65;;;25.00;51.50;;;;;;4155083;28;19931;-48
2022/04/20 10:11:05;;;;;;;;;;;24.90;50.90;;;;;;4132114;28;20150;-49
2022/04/20 10:13:07;;;;;;;0.60;0.60;;;24.90;51.90;;;;;;4133578;28;19936;-51
2022/04/20 10:17:32;;;;;;;0.75;0.52;;;24.80;51.00;;;;;;4134838;28;20052;-51
2022/04/20 10:19:37;;;;;;;0.50;0.50;;;24.80;50.70;;;;;;4139945;28;20850;-54
2022/04/20 10:21:48;;;;;;;0.55;0.50;;;24.80;50.70;;;;;;4143751;28;20088;-53
2022/04/20 10:23:52;;;;;;;0.77;0.60;;;24.70;51.10;;;;;;4140577;28;20631;-47
2022/04/20 10:25:54;;;;;;;0.63;0.50;;;24.70;50.60;;;;;;4130523;28;22168;-52
2022/04/20 10:28:17;;;;;;;0.40;0.38;;;24.70;50.90;;;;;;4135575;28;20894;-54
2022/04/20 10:31:00;;;;;;;1.07;0.70;;;24.60;50.60;;;;;;4148545;28;21080;-51
2022/04/20 10:33:23;;;;;;;0.95;0.50;;;24.60;50.90;;;;;;4128582;28;20103;-52
2022/04/20 10:35:26;;;;;;;1.50;0.50;;;24.60;50.40;;;;;;4140948;28;20277;-54
2022/04/20 10:37:31;;;;;;;1.10;0.73;;;24.50;50.40;;;;;;4153024;28;21911;-49
2022/04/20 10:39:39;;;;;;;0.60;0.60;;;24.50;50.10;;;;;;4134851;28;20049;-49
2022/04/20 10:41:41;;;;;;;0.88;0.40;;;24.50;50.60;;;;;;4135091;28;20056;-48
2022/04/20 10:43:44;;;;;;;0.63;0.40;;;24.50;50.50;;;;;;4136711;28;20822;-52
2022/04/20 10:46:06;;;;;;;1.00;0.70;;;24.40;50.30;;;;;;4156867;28;20066;-50
2022/04/20 10:48:17;;;;;;;0.85;0.60;;;24.40;50.20;;;;;;4135033;28;20064;-53
2022/04/20 10:50:25;;;;;;;0.75;0.55;;;24.40;50.30;;;;;;4139179;28;20588;-54
2022/04/20 10:52:36;;;;;;;0.55;0.40;;;24.40;50.30;;;;;;4141758;28;20064;-51
2022/04/20 10:54:53;;;;;;;0.60;0.60;;;24.40;50.50;;;;;;4144282;28;20048;-52
2022/04/20 10:57:01;;;;;;;1.17;0.63;;;24.30;50.10;;;;;;4136126;28;20068;-51
2022/04/20 10:59:10;;;;;;;0.77;0.50;;;24.30;50.00;;;;;;4142137;28;20520;-48
2022/04/20 11:01:14;;;;;;;1.25;0.70;;;24.30;50.20;;;;;;4145153;28;20065;-50
2022/04/20 11:03:17;;;;;;;0.75;0.43;;;24.20;50.00;;;;;;4141725;28;20048;-51
2022/04/20 11:05:24;;;;;;;0.65;0.57;;;24.20;50.30;;;;;;4136264;28;20092;-48
2022/04/20 11:07:26;;;;;;;0.60;0.50;;;24.20;50.20;;;;;;4134168;28;20144;-56
2022/04/20 11:09:48;;;;;;;1.17;0.50;;;24.20;50.20;;;;;;4143805;28;20155;-52
2022/04/20 11:19:52;;;;;;;0.68;0.68;;;24.10;50.20;;;;;;4112495;28;20858;-52
2022/04/20 11:22:10;;;;;;;0.68;0.40;;;24.00;50.10;;;;;;4105615;28;20068;-49
2022/04/20 11:24:13;;;;;;;0.98;0.73;;;24.00;50.20;;;;;;4134029;28;20506;-53
2022/04/20 11:26:24;;;;;;;0.50;0.50;;;24.00;50.20;;;;;;4139045;28;20057;-53